Time;durP1;ratioP1;P1;durP2;ratioP2;P2;SDS_P1;SDS_P2;PMS_P1;PMS_P2;Temp;Humidity;BMP_temperature;BMP_pressure;BME280_temperature;BME280_humidity;BME280_pressure;Samples;Min_cycle;Max_cycle;Signal;HPM_P1;HPM_P2
2021/05/09 00:01:53;;;;;;;;;;;23.20;33.70;;;;;;1518151;77;887;-72
2021/05/09 00:03:55;;;;;;;;;;;23.10;33.70;;;;;;1512859;77;1938;-72
2021/05/09 00:05:57;;;;;;;;;;;23.10;33.60;;;;;;1517955;77;795;-72
2021/05/09 00:07:59;;;;;;;;;;;23.20;33.60;;;;;;1517797;77;693;-73
2021/05/09 00:10:01;;;;;;;;;;;23.20;33.60;;;;;;1516758;77;1126;-73
2021/05/09 00:12:03;;;;;;;;;;;23.10;33.60;;;;;;1517054;77;779;-73
2021/05/09 00:14:05;;;;;;;;;;;23.10;33.60;;;;;;1513621;77;825;-74
2021/05/09 00:16:07;;;;;;;;;;;23.10;33.70;;;;;;1519196;77;794;-74
2021/05/09 00:18:09;;;;;;;;;;;23.20;33.60;;;;;;1516693;77;785;-74
2021/05/09 00:20:11;;;;;;;;;;;23.20;33.50;;;;;;1518262;77;1124;-73
2021/05/09 00:22:13;;;;;;;;;;;23.10;33.40;;;;;;1509306;77;905;-73
2021/05/09 00:24:15;;;;;;;;;;;23.10;33.40;;;;;;1516073;77;1940;-72
2021/05/09 00:26:17;;;;;;;;;;;23.10;33.40;;;;;;1514584;77;726;-71
2021/05/09 00:28:19;;;;;;;;;;;23.10;33.40;;;;;;1516952;77;741;-73
2021/05/09 00:30:20;;;;;;;;;;;23.10;33.40;;;;;;1517041;77;1137;-73
2021/05/09 00:32:22;;;;;;;;;;;23.10;33.40;;;;;;1519104;77;1011;-73
2021/05/09 00:34:24;;;;;;;;;;;23.10;33.40;;;;;;1514153;77;797;-72
2021/05/09 00:36:27;;;;;;;;;;;23.10;33.40;;;;;;1518948;77;717;-74
2021/05/09 00:38:28;;;;;;;;;;;23.10;33.40;;;;;;1516222;77;727;-72
2021/05/09 00:40:30;;;;;;;;;;;23.20;33.50;;;;;;1516788;77;1130;-72
2021/05/09 00:42:32;;;;;;;;;;;23.10;33.50;;;;;;1516760;77;743;-72
2021/05/09 00:44:34;;;;;;;;;;;23.20;33.50;;;;;;1516192;77;1949;-71
2021/05/09 00:46:36;;;;;;;;;;;23.10;33.50;;;;;;1518695;77;724;-71
2021/05/09 00:48:38;;;;;;;;;;;23.20;33.50;;;;;;1517711;77;670;-73
2021/05/09 00:50:40;;;;;;;;;;;23.10;33.50;;;;;;1514882;77;1127;-73
2021/05/09 00:52:42;;;;;;;;;;;23.10;33.50;;;;;;1513933;77;732;-74
2021/05/09 00:54:53;;;;;;;;;;;23.10;33.50;;;;;;1516351;77;791;-73
2021/05/09 00:56:55;;;;;;;;;;;23.10;33.60;;;;;;1514433;77;808;-73
2021/05/09 00:58:57;;;;;;;;;;;23.20;33.60;;;;;;1516164;77;749;-73
2021/05/09 01:00:59;;;;;;;;;;;23.20;33.60;;;;;;1516945;77;1109;-72
2021/05/09 01:03:02;;;;;;;;;;;23.10;33.60;;;;;;1517243;77;826;-71
2021/05/09 01:05:04;;;;;;;;;;;23.20;33.60;;;;;;1518248;77;1934;-73
2021/05/09 01:07:06;;;;;;;;;;;23.20;33.50;;;;;;1514428;77;728;-72
2021/05/09 01:09:08;;;;;;;;;;;23.20;33.60;;;;;;1514470;77;1157;-71
2021/05/09 01:11:10;;;;;;;;;;;23.10;33.80;;;;;;1512306;77;771;-71
2021/05/09 01:13:12;;;;;;;;;;;23.10;33.60;;;;;;1516949;77;899;-72
2021/05/09 01:15:14;;;;;;;;;;;23.10;33.60;;;;;;1511768;77;822;-72
2021/05/09 01:17:16;;;;;;;;;;;23.10;33.60;;;;;;1512732;77;755;-71
2021/05/09 01:19:18;;;;;;;;;;;23.10;33.60;;;;;;1515477;77;1135;-73
2021/05/09 01:21:20;;;;;;;;;;;23.10;33.60;;;;;;1508385;77;737;-73
2021/05/09 01:23:22;;;;;;;;;;;23.10;33.60;;;;;;1519440;77;739;-73
2021/05/09 01:25:23;;;;;;;;;;;23.00;33.50;;;;;;1511269;77;1929;-73
2021/05/09 01:27:25;;;;;;;;;;;23.00;33.50;;;;;;1512682;77;784;-72
2021/05/09 01:29:27;;;;;;;;;;;23.10;33.60;;;;;;1515138;77;1130;-73
2021/05/09 01:31:29;;;;;;;;;;;23.10;33.60;;;;;;1513083;77;752;-73
2021/05/09 01:33:31;;;;;;;;;;;23.00;33.60;;;;;;1515434;77;761;-74
2021/05/09 01:35:33;;;;;;;;;;;23.00;33.40;;;;;;1522084;77;675;-73
2021/05/09 01:37:35;;;;;;;;;;;23.10;33.60;;;;;;1501640;77;856;-73
2021/05/09 01:39:37;;;;;;;;;;;23.00;33.60;;;;;;1496726;77;1119;-71
2021/05/09 01:41:39;;;;;;;;;;;23.00;33.50;;;;;;1516324;77;802;-72
2021/05/09 01:43:41;;;;;;;;;;;23.00;33.60;;;;;;1501078;77;778;-72
2021/05/09 01:45:43;;;;;;;;;;;23.00;33.70;;;;;;1508046;77;1959;-72
2021/05/09 01:47:45;;;;;;;;;;;23.00;33.70;;;;;;1510575;77;730;-72
2021/05/09 01:49:47;;;;;;;;;;;23.10;33.90;;;;;;1498786;77;1171;-73
2021/05/09 01:51:49;;;;;;;;;;;23.00;33.80;;;;;;1506880;77;673;-73
2021/05/09 01:53:51;;;;;;;;;;;23.00;33.90;;;;;;1516777;77;641;-72
2021/05/09 01:55:53;;;;;;;;;;;23.00;33.90;;;;;;1503090;77;775;-72
2021/05/09 01:57:55;;;;;;;;;;;23.00;33.80;;;;;;1511689;77;761;-71
2021/05/09 01:59:58;;;;;;;;;;;23.00;33.90;;;;;;1529593;73;219361;-66
2021/05/09 02:02:00;;;;;;;;;;;23.00;33.90;;;;;;1587780;73;841;-66
2021/05/09 02:04:02;;;;;;;;;;;23.00;33.90;;;;;;1587846;73;1925;-66
2021/05/09 02:06:04;;;;;;;;;;;23.00;33.90;;;;;;1588976;74;821;-66
2021/05/09 02:08:06;;;;;;;;;;;23.00;34.00;;;;;;1588300;74;778;-66
2021/05/09 02:10:09;;;;;;;;;;;23.00;34.20;;;;;;1574758;74;1190;-67
2021/05/09 02:12:11;;;;;;;;;;;23.00;34.20;;;;;;1552909;75;751;-69
2021/05/09 02:14:13;;;;;;;;;;;23.00;34.20;;;;;;1560400;75;820;-66
2021/05/09 02:16:15;;;;;;;;;;;23.00;34.20;;;;;;1551582;75;758;-69
2021/05/09 02:18:17;;;;;;;;;;;23.00;34.30;;;;;;1546426;75;731;-66
2021/05/09 02:20:18;;;;;;;;;;;23.00;34.30;;;;;;1557252;74;1124;-67
2021/05/09 02:22:20;;;;;;;;;;;23.00;34.40;;;;;;1554959;75;674;-67
2021/05/09 02:24:22;;;;;;;;;;;23.00;34.20;;;;;;1559776;75;1925;-66
2021/05/09 02:26:24;;;;;;;;;;;22.90;34.30;;;;;;1557533;75;787;-67
2021/05/09 02:28:26;;;;;;;;;;;22.90;34.30;;;;;;1554752;75;805;-66
2021/05/09 02:30:28;;;;;;;;;;;22.90;34.30;;;;;;1554099;74;1142;-66
2021/05/09 02:32:30;;;;;;;;;;;22.90;34.30;;;;;;1555379;75;810;-66
2021/05/09 02:34:32;;;;;;;;;;;22.90;34.30;;;;;;1554259;75;943;-66
2021/05/09 02:36:34;;;;;;;;;;;23.00;34.40;;;;;;1550434;75;779;-66
2021/05/09 02:38:35;;;;;;;;;;;22.90;34.30;;;;;;1559519;75;801;-66
2021/05/09 02:40:37;;;;;;;;;;;22.90;34.40;;;;;;1555664;75;1120;-66
2021/05/09 02:42:39;;;;;;;;;;;22.80;34.20;;;;;;1552206;75;654;-67
2021/05/09 02:44:41;;;;;;;;;;;22.90;34.40;;;;;;1550143;75;1943;-66
2021/05/09 02:46:43;;;;;;;;;;;22.70;34.30;;;;;;1555269;75;798;-65
2021/05/09 02:48:45;;;;;;;;;;;22.70;34.40;;;;;;1556297;75;782;-66
2021/05/09 02:50:47;;;;;;;;;;;22.60;34.40;;;;;;1558571;75;1127;-67
2021/05/09 02:52:48;;;;;;;;;;;22.60;34.50;;;;;;1508833;77;1317;-67
2021/05/09 02:54:50;;;;;;;;;;;22.60;34.90;;;;;;1559033;75;705;-66
2021/05/09 02:56:52;;;;;;;;;;;22.50;34.60;;;;;;1554504;75;694;-67
2021/05/09 02:58:54;;;;;;;;;;;22.60;34.70;;;;;;1562138;75;679;-66
2021/05/09 03:00:56;;;;;;;;;;;22.60;34.70;;;;;;1556667;75;1160;-67
2021/05/09 03:02:58;;;;;;;;;;;22.50;34.80;;;;;;1554648;75;744;-67
2021/05/09 03:05:00;;;;;;;;;;;22.50;34.70;;;;;;1552541;75;1938;-66
2021/05/09 03:07:02;;;;;;;;;;;22.50;34.70;;;;;;1552803;75;747;-67
2021/05/09 03:09:04;;;;;;;;;;;22.50;34.70;;;;;;1559125;75;719;-67
2021/05/09 03:11:06;;;;;;;;;;;22.50;34.70;;;;;;1549669;75;1168;-67
2021/05/09 03:13:08;;;;;;;;;;;22.40;34.50;;;;;;1545806;75;774;-67
2021/05/09 03:15:10;;;;;;;;;;;22.50;34.50;;;;;;1558282;75;778;-64
2021/05/09 03:17:12;;;;;;;;;;;22.40;34.40;;;;;;1552243;75;799;-66
2021/05/09 03:19:14;;;;;;;;;;;22.50;34.60;;;;;;1549498;75;754;-67
2021/05/09 03:21:16;;;;;;;;;;;22.50;34.50;;;;;;1552239;75;1108;-65
2021/05/09 03:23:19;;;;;;;;;;;22.50;34.50;;;;;;1545673;75;730;-66
2021/05/09 03:25:21;;;;;;;;;;;22.50;34.40;;;;;;1555562;75;1921;-66
2021/05/09 03:27:23;;;;;;;;;;;22.50;34.40;;;;;;1558160;75;800;-66
2021/05/09 03:29:25;;;;;;;;;;;22.50;34.40;;;;;;1551544;75;780;-66
2021/05/09 03:31:26;;;;;;;;;;;22.50;34.30;;;;;;1549090;75;831;-67
2021/05/09 03:33:28;;;;;;;;;;;22.50;34.20;;;;;;1556536;75;764;-66
2021/05/09 03:35:30;;;;;;;;;;;22.60;34.20;;;;;;1558885;75;771;-66
2021/05/09 03:37:32;;;;;;;;;;;22.60;34.20;;;;;;1558803;75;833;-68
2021/05/09 03:39:34;;;;;;;;;;;22.50;34.20;;;;;;1549646;75;1092;-67
2021/05/09 03:41:36;;;;;;;;;;;22.60;34.10;;;;;;1551094;75;782;-68
2021/05/09 03:43:38;;;;;;;;;;;22.60;34.00;;;;;;1554943;75;751;-66
2021/05/09 03:45:39;;;;;;;;;;;22.60;34.00;;;;;;1547975;75;1935;-66
2021/05/09 03:47:41;;;;;;;;;;;22.60;34.00;;;;;;1551498;75;726;-66
2021/05/09 03:49:43;;;;;;;;;;;22.60;34.10;;;;;;1554614;75;1079;-67
2021/05/09 03:51:45;;;;;;;;;;;22.60;33.90;;;;;;1552657;75;756;-64
2021/05/09 03:53:48;;;;;;;;;;;22.60;34.00;;;;;;1556616;75;762;-67
2021/05/09 03:55:50;;;;;;;;;;;22.60;33.90;;;;;;1558586;75;788;-66
2021/05/09 03:57:52;;;;;;;;;;;22.60;33.90;;;;;;1553697;75;737;-66
2021/05/09 03:59:53;;;;;;;;;;;22.60;33.90;;;;;;1548184;75;1156;-63
2021/05/09 04:01:55;;;;;;;;;;;22.70;33.90;;;;;;1543637;75;812;-66
2021/05/09 04:03:57;;;;;;;;;;;22.60;33.80;;;;;;1550250;75;790;-66
2021/05/09 04:05:59;;;;;;;;;;;22.60;33.70;;;;;;1555206;75;1946;-66
2021/05/09 04:08:01;;;;;;;;;;;22.60;33.80;;;;;;1554275;75;789;-66
2021/05/09 04:10:03;;;;;;;;;;;22.60;33.80;;;;;;1550401;75;1141;-65
2021/05/09 04:12:06;;;;;;;;;;;22.60;33.80;;;;;;1556579;75;658;-65
2021/05/09 04:14:08;;;;;;;;;;;22.60;33.80;;;;;;1559246;75;726;-65
2021/05/09 04:16:10;;;;;;;;;;;22.70;33.80;;;;;;1550802;75;741;-65
2021/05/09 04:18:12;;;;;;;;;;;22.60;33.80;;;;;;1553500;75;748;-67
2021/05/09 04:20:14;;;;;;;;;;;22.60;33.80;;;;;;1547085;75;1118;-66
2021/05/09 04:22:15;;;;;;;;;;;22.60;33.70;;;;;;1553921;75;1082;-64
2021/05/09 04:24:17;;;;;;;;;;;22.70;33.80;;;;;;1546689;75;796;-65
2021/05/09 04:26:19;;;;;;;;;;;22.80;33.80;;;;;;1546679;75;1944;-67
2021/05/09 04:28:21;;;;;;;;;;;22.70;33.80;;;;;;1558003;75;767;-66
2021/05/09 04:30:23;;;;;;;;;;;22.70;33.90;;;;;;1546935;75;1155;-65
2021/05/09 04:32:25;;;;;;;;;;;22.60;33.80;;;;;;1556041;75;779;-65
2021/05/09 04:34:27;;;;;;;;;;;22.70;33.80;;;;;;1550127;75;810;-66
2021/05/09 04:36:29;;;;;;;;;;;22.70;33.90;;;;;;1549465;75;777;-65
2021/05/09 04:38:31;;;;;;;;;;;22.60;33.90;;;;;;1538435;75;797;-66
2021/05/09 04:40:33;;;;;;;;;;;22.60;33.80;;;;;;1554192;75;1139;-69
2021/05/09 04:42:34;;;;;;;;;;;22.70;33.80;;;;;;1555640;75;707;-65
2021/05/09 04:44:36;;;;;;;;;;;22.80;33.80;;;;;;1559016;75;794;-66
2021/05/09 04:46:38;;;;;;;;;;;22.80;33.60;;;;;;1556377;75;1941;-64
2021/05/09 04:48:40;;;;;;;;;;;22.90;33.60;;;;;;1556448;75;717;-65
2021/05/09 04:50:42;;;;;;;;;;;22.90;33.40;;;;;;1562109;74;1132;-65
2021/05/09 04:52:44;;;;;;;;;;;22.90;33.40;;;;;;1556851;75;790;-66
2021/05/09 04:54:46;;;;;;;;;;;23.00;33.40;;;;;;1557776;75;730;-65
2021/05/09 04:56:47;;;;;;;;;;;23.00;33.30;;;;;;1554653;75;763;-65
2021/05/09 04:58:49;;;;;;;;;;;22.90;33.30;;;;;;1556921;75;768;-65
2021/05/09 05:01:01;;;;;;;;;;;22.90;33.20;;;;;;1556582;75;1165;-67
2021/05/09 05:03:03;;;;;;;;;;;23.00;33.30;;;;;;1558761;75;813;-65
2021/05/09 05:05:05;;;;;;;;;;;23.00;33.30;;;;;;1563506;75;823;-65
2021/05/09 05:07:07;;;;;;;;;;;22.90;33.20;;;;;;1558703;75;1922;-65
2021/05/09 05:09:09;;;;;;;;;;;22.90;33.30;;;;;;1552650;75;783;-65
2021/05/09 05:11:11;;;;;;;;;;;23.00;33.40;;;;;;1554506;75;1119;-65
2021/05/09 05:13:20;;;;;;;;;;;23.00;33.40;;;;;;1551622;75;749;-65
2021/05/09 05:15:22;;;;;;;;;;;22.90;33.50;;;;;;1548518;75;763;-65
2021/05/09 05:17:24;;;;;;;;;;;22.90;33.60;;;;;;1556735;75;779;-65
2021/05/09 05:19:25;;;;;;;;;;;22.80;33.60;;;;;;1556885;75;752;-63
2021/05/09 05:21:27;;;;;;;;;;;22.80;33.60;;;;;;1546757;75;759;-65
2021/05/09 05:23:30;;;;;;;;;;;22.80;33.60;;;;;;1543262;75;792;-65
2021/05/09 05:25:32;;;;;;;;;;;22.90;33.70;;;;;;1561031;75;1920;-65
2021/05/09 05:27:33;;;;;;;;;;;22.80;33.50;;;;;;1560691;75;756;-65
2021/05/09 05:29:35;;;;;;;;;;;22.80;33.50;;;;;;1556515;74;1123;-63
2021/05/09 05:31:37;;;;;;;;;;;22.90;33.60;;;;;;1555518;75;697;-65
2021/05/09 05:33:39;;;;;;;;;;;22.80;33.50;;;;;;1568299;75;774;-66
2021/05/09 05:35:41;;;;;;;;;;;22.90;33.60;;;;;;1567493;75;791;-65
2021/05/09 05:37:43;;;;;;;;;;;22.80;33.50;;;;;;1570217;75;742;-65
2021/05/09 05:39:45;;;;;;;;;;;22.80;33.50;;;;;;1561104;75;1080;-65
2021/05/09 05:41:46;;;;;;;;;;;22.90;33.50;;;;;;1564051;75;946;-64
2021/05/09 05:43:48;;;;;;;;;;;22.80;33.60;;;;;;1556331;75;707;-64
2021/05/09 05:45:52;;;;;;;;;;;22.80;33.70;;;;;;1554464;75;1942;-64
2021/05/09 05:47:54;;;;;;;;;;;22.70;33.80;;;;;;1558806;75;2264;-64
2021/05/09 05:49:56;;;;;;;;;;;22.70;33.80;;;;;;1555677;74;1180;-65
2021/05/09 05:51:58;;;;;;;;;;;22.80;33.80;;;;;;1562024;75;857;-65
2021/05/09 05:54:00;;;;;;;;;;;22.80;33.80;;;;;;1550984;75;730;-66
2021/05/09 05:56:02;;;;;;;;;;;22.80;33.80;;;;;;1561429;75;738;-65
2021/05/09 05:58:05;;;;;;;;;;;22.80;33.80;;;;;;1558657;75;782;-65
2021/05/09 06:00:07;;;;;;;;;;;22.90;33.80;;;;;;1563410;75;1175;-66
2021/05/09 06:02:09;;;;;;;;;;;22.90;33.80;;;;;;1554490;75;788;-65
2021/05/09 06:04:11;;;;;;;;;;;22.90;33.80;;;;;;1557501;75;718;-65
2021/05/09 06:06:13;;;;;;;;;;;22.90;33.80;;;;;;1558849;75;1966;-65
2021/05/09 06:08:18;;;;;;;;;;;22.80;33.80;;;;;;1559512;75;795;-66
2021/05/09 06:10:20;;;;;;;;;;;22.90;33.90;;;;;;1545779;75;1167;-64
2021/05/09 06:12:21;;;;;;;;;;;22.90;33.80;;;;;;1555064;75;800;-66
2021/05/09 06:14:23;;;;;;;;;;;22.90;33.60;;;;;;1557113;75;727;-65
2021/05/09 06:16:25;;;;;;;;;;;22.90;33.40;;;;;;1558938;75;766;-64
2021/05/09 06:18:27;;;;;;;;;;;23.00;33.40;;;;;;1552316;75;766;-65
2021/05/09 06:20:29;;;;;;;;;;;22.80;33.20;;;;;;1550876;75;1156;-64
2021/05/09 06:22:31;;;;;;;;;;;22.90;33.20;;;;;;1550648;75;822;-64
2021/05/09 06:24:33;;;;;;;;;;;22.90;33.10;;;;;;1559008;75;710;-65
2021/05/09 06:26:34;;;;;;;;;;;22.90;32.90;;;;;;1550958;75;1935;-66
2021/05/09 06:28:36;;;;;;;;;;;22.90;33.10;;;;;;1555168;75;846;-67
2021/05/09 06:30:38;;;;;;;;;;;23.00;33.00;;;;;;1554819;75;1263;-66
2021/05/09 06:32:40;;;;;;;;;;;23.00;32.90;;;;;;1567578;75;778;-65
2021/05/09 06:34:43;;;;;;;;;;;23.00;32.80;;;;;;1569448;75;744;-65
2021/05/09 06:36:45;;;;;;;;;;;23.00;32.70;;;;;;1554767;75;783;-66
2021/05/09 06:38:48;;;;;;;;;;;23.10;32.80;;;;;;1542244;75;743;-65
2021/05/09 06:40:50;;;;;;;;;;;23.00;32.70;;;;;;1547634;75;1145;-65
2021/05/09 06:42:56;;;;;;;;;;;23.00;32.60;;;;;;1559361;75;809;-65
2021/05/09 06:45:04;;;;;;;;;;;23.00;32.70;;;;;;1564210;75;1873;-66
2021/05/09 06:47:02;;;;;;;;;;;22.90;32.60;;;;;;1555992;75;1914;-66
2021/05/09 06:49:04;;;;;;;;;;;23.00;32.60;;;;;;1553217;75;777;-66
2021/05/09 06:51:06;;;;;;;;;;;23.00;32.50;;;;;;1540568;75;1124;-67
2021/05/09 06:53:08;;;;;;;;;;;23.00;32.40;;;;;;1547267;75;817;-65
2021/05/09 06:55:11;;;;;;;;;;;23.00;32.40;;;;;;1547677;75;735;-65
2021/05/09 06:57:13;;;;;;;;;;;23.00;32.40;;;;;;1554222;75;656;-67
2021/05/09 06:59:14;;;;;;;;;;;23.00;32.40;;;;;;1545505;75;727;-66
2021/05/09 07:01:16;;;;;;;;;;;23.00;32.30;;;;;;1541982;75;1160;-68
2021/05/09 07:03:18;;;;;;;;;;;23.00;32.40;;;;;;1551654;75;802;-65
2021/05/09 07:05:20;;;;;;;;;;;23.00;32.40;;;;;;1550368;75;724;-65
2021/05/09 07:07:22;;;;;;;;;;;22.90;32.40;;;;;;1544778;75;1932;-65
2021/05/09 07:09:24;;;;;;;;;;;22.90;32.30;;;;;;1557873;75;829;-65
2021/05/09 07:11:27;;;;;;;;;;;22.80;32.30;;;;;;1553329;74;1172;-66
2021/05/09 07:13:29;;;;;;;;;;;22.80;32.50;;;;;;1553342;75;782;-66
2021/05/09 07:15:35;;;;;;;;;;;22.80;32.50;;;;;;1559889;75;785;-65
2021/05/09 07:17:34;;;;;;;;;;;22.70;32.50;;;;;;1557963;75;1660;-66
2021/05/09 07:19:36;;;;;;;;;;;22.70;32.60;;;;;;1551485;75;1129;-66
2021/05/09 07:21:47;;;;;;;;;;;22.70;32.60;;;;;;1558492;75;779;-66
2021/05/09 07:23:49;;;;;;;;;;;22.70;32.60;;;;;;1551540;75;1592;-66
2021/05/09 07:25:47;;;;;;;;;;;22.70;32.60;;;;;;1541168;75;1409;-65
2021/05/09 07:27:49;;;;;;;;;;;22.80;32.70;;;;;;1549679;75;1988;-65
2021/05/09 07:29:51;;;;;;;;;;;22.80;32.70;;;;;;1559056;75;1072;-65
2021/05/09 07:31:53;;;;;;;;;;;22.70;32.80;;;;;;1542584;75;780;-65
2021/05/09 07:33:55;;;;;;;;;;;22.70;32.70;;;;;;1549750;75;883;-66
2021/05/09 07:35:57;;;;;;;;;;;22.60;32.80;;;;;;1542649;75;784;-64
2021/05/09 07:38:03;;;;;;;;;;;22.60;32.80;;;;;;1559509;75;749;-66
2021/05/09 07:40:06;;;;;;;;;;;22.70;33.30;;;;;;1548707;75;1178;-65
2021/05/09 07:42:08;;;;;;;;;;;22.70;33.40;;;;;;1548815;75;773;-64
2021/05/09 07:44:10;;;;;;;;;;;22.80;33.60;;;;;;1544477;75;845;-65
2021/05/09 07:46:12;;;;;;;;;;;22.70;33.80;;;;;;1545949;75;1928;-64
2021/05/09 07:48:13;;;;;;;;;;;22.90;34.20;;;;;;1540297;75;883;-63
2021/05/09 07:50:15;;;;;;;;;;;23.00;33.20;;;;;;1553533;74;1187;-63
2021/05/09 07:52:17;;;;;;;;;;;23.10;32.10;;;;;;1552935;75;757;-66
2021/05/09 07:54:19;;;;;;;;;;;23.20;30.70;;;;;;1549340;75;857;-63
2021/05/09 07:56:21;;;;;;;;;;;23.20;30.70;;;;;;1558666;75;787;-63
2021/05/09 07:58:23;;;;;;;;;;;23.30;30.30;;;;;;1559335;75;741;-62
2021/05/09 08:00:25;;;;;;;;;;;23.30;30.60;;;;;;1568926;73;2091;-69
2021/05/09 08:02:27;;;;;;;;;;;23.30;30.00;;;;;;1593652;73;702;-69
2021/05/09 08:04:29;;;;;;;;;;;23.40;29.70;;;;;;1606394;73;787;-69
2021/05/09 08:06:30;;;;;;;;;;;23.50;29.40;;;;;;1587676;73;1977;-69
2021/05/09 08:08:33;;;;;;;;;;;23.50;29.40;;;;;;1609266;73;856;-68
2021/05/09 08:10:36;;;;;;;;;;;23.60;29.30;;;;;;1581914;73;1218;-69
2021/05/09 08:12:38;;;;;;;;;;;23.60;28.70;;;;;;1554061;74;706;-68
2021/05/09 08:14:40;;;;;;;;;;;23.60;28.60;;;;;;1550339;74;726;-69
2021/05/09 08:16:42;;;;;;;;;;;23.60;28.20;;;;;;1556383;74;661;-68
2021/05/09 08:18:44;;;;;;;;;;;23.60;28.60;;;;;;1552411;74;810;-68
2021/05/09 08:20:46;;;;;;;;;;;23.60;28.60;;;;;;1552687;74;1165;-69
2021/05/09 08:22:48;;;;;;;;;;;23.60;28.50;;;;;;1559147;74;754;-69
2021/05/09 08:24:49;;;;;;;;;;;23.70;28.60;;;;;;1562808;74;711;-69
2021/05/09 08:26:52;;;;;;;;;;;23.70;28.60;;;;;;1561644;74;1943;-69
2021/05/09 08:28:53;;;;;;;;;;;23.70;28.70;;;;;;1555610;74;819;-68
2021/05/09 08:30:55;;;;;;;;;;;23.80;28.80;;;;;;1556806;74;1081;-68
2021/05/09 08:32:58;;;;;;;;;;;23.90;28.70;;;;;;1548780;74;767;-69
2021/05/09 08:35:02;;;;;;;;;;;23.90;28.40;;;;;;1543406;74;767;-68
2021/05/09 08:37:03;;;;;;;;;;;23.90;28.40;;;;;;1551242;74;1698;-68
2021/05/09 08:39:05;;;;;;;;;;;23.90;28.40;;;;;;1555762;74;714;-67
2021/05/09 08:41:07;;;;;;;;;;;23.90;28.40;;;;;;1560333;74;1147;-66
2021/05/09 08:43:09;;;;;;;;;;;23.90;28.40;;;;;;1558353;74;811;-69
2021/05/09 08:45:11;;;;;;;;;;;24.00;28.50;;;;;;1556223;74;579;-69
2021/05/09 08:47:15;;;;;;;;;;;24.00;28.60;;;;;;1549770;74;1934;-69
2021/05/09 08:49:16;;;;;;;;;;;24.10;28.60;;;;;;1548991;74;693;-67
2021/05/09 08:51:18;;;;;;;;;;;24.00;28.80;;;;;;1552924;74;1132;-69
2021/05/09 08:53:20;;;;;;;;;;;24.00;28.80;;;;;;1550332;74;675;-68
2021/05/09 08:55:25;;;;;;;;;;;23.90;28.90;;;;;;1548877;74;723;-69
2021/05/09 08:57:26;;;;;;;;;;;23.90;29.10;;;;;;1553533;74;1726;-69
2021/05/09 08:59:28;;;;;;;;;;;23.90;29.00;;;;;;1545269;74;790;-69
2021/05/09 09:01:30;;;;;;;;;;;23.90;29.10;;;;;;1552452;74;1144;-69
2021/05/09 09:03:35;;;;;;;;;;;23.90;29.20;;;;;;1551095;74;926;-70
2021/05/09 09:05:39;;;;;;;;;;;23.90;29.20;;;;;;1551841;74;750;-69
2021/05/09 09:07:44;;;;;;;;;;;23.90;29.20;;;;;;1549604;74;1923;-69
2021/05/09 09:09:47;;;;;;;;;;;23.90;29.30;;;;;;1548939;73;1120;-68
2021/05/09 09:11:50;;;;;;;;;;;23.80;29.40;;;;;;1549150;74;790;-69
2021/05/09 09:13:53;;;;;;;;;;;23.90;29.60;;;;;;1550192;74;778;-68
2021/05/09 09:15:59;;;;;;;;;;;23.90;29.70;;;;;;1553538;74;1800;-69
2021/05/09 09:18:01;;;;;;;;;;;23.90;29.80;;;;;;1546675;74;783;-70
2021/05/09 09:20:07;;;;;;;;;;;23.80;30.10;;;;;;1568463;73;1234;-69
2021/05/09 09:22:09;;;;;;;;;;;23.70;30.30;;;;;;1548461;74;1778;-69
2021/05/09 09:24:11;;;;;;;;;;;23.80;30.20;;;;;;1547793;74;815;-69
2021/05/09 09:26:31;;;;;;;;;;;23.80;30.20;;;;;;1546230;74;770;-69
2021/05/09 09:28:34;;;;;;;;;;;23.80;30.20;;;;;;1552558;74;1916;-69
2021/05/09 09:30:37;;;;;;;;;;;23.80;30.20;;;;;;1566733;73;1122;-69
2021/05/09 09:32:39;;;;;;;;;;;23.90;30.20;;;;;;1558933;74;1637;-68
2021/05/09 09:34:41;;;;;;;;;;;23.80;30.20;;;;;;1548751;74;746;-68
2021/05/09 09:36:43;;;;;;;;;;;23.80;30.30;;;;;;1548322;74;799;-69
2021/05/09 09:38:47;;;;;;;;;;;23.80;30.50;;;;;;1550953;74;748;-68
2021/05/09 09:41:08;;;;;;;;;;;23.80;30.50;;;;;;1554340;74;1164;-68
2021/05/09 09:43:17;;;;;;;;;;;23.80;30.50;;;;;;1546084;74;1054;-68
2021/05/09 09:45:19;;;;;;;;;;;23.70;30.70;;;;;;1549040;74;660;-68
2021/05/09 09:47:21;;;;;;;;;;;23.70;30.80;;;;;;1552537;74;1923;-68
2021/05/09 09:49:24;;;;;;;;;;;23.70;30.80;;;;;;1591571;73;792;-68
2021/05/09 09:51:26;;;;;;;;;;;23.80;30.80;;;;;;1551389;74;1135;-68
2021/05/09 09:53:34;;;;;;;;;;;23.70;30.20;;;;;;1548627;74;799;-68
2021/05/09 09:55:36;;;;;;;;;;;23.70;30.10;;;;;;1545045;74;824;-68
2021/05/09 09:57:38;;;;;;;;;;;23.70;30.00;;;;;;1548915;74;722;-67
2021/05/09 09:59:40;;;;;;;;;;;23.70;30.10;;;;;;1549074;74;796;-68
2021/05/09 10:01:42;;;;;;;;;;;23.80;30.10;;;;;;1550035;74;1072;-67
2021/05/09 10:03:43;;;;;;;;;;;23.70;29.40;;;;;;1546756;74;725;-67
2021/05/09 10:05:45;;;;;;;;;;;23.70;29.40;;;;;;1551118;74;743;-68
2021/05/09 10:07:47;;;;;;;;;;;23.70;29.40;;;;;;1549458;74;1937;-67
2021/05/09 10:09:49;;;;;;;;;;;23.60;29.40;;;;;;1547281;73;1198;-68
2021/05/09 10:11:53;;;;;;;;;;;23.70;29.60;;;;;;1557724;74;770;-68
2021/05/09 10:13:55;;;;;;;;;;;23.70;29.70;;;;;;1553987;74;773;-69
2021/05/09 10:15:57;;;;;;;;;;;23.80;29.80;;;;;;1551164;74;774;-68
2021/05/09 10:17:59;;;;;;;;;;;23.80;29.70;;;;;;1557899;74;800;-69
2021/05/09 10:20:00;;;;;;;;;;;23.80;29.90;;;;;;1553134;74;1092;-68
2021/05/09 10:22:04;;;;;;;;;;;23.70;29.70;;;;;;1552351;74;820;-69
2021/05/09 10:24:11;;;;;;;;;;;23.70;29.70;;;;;;1558422;74;1569;-68
2021/05/09 10:26:12;;;;;;;;;;;23.70;29.60;;;;;;1558712;74;794;-65
2021/05/09 10:28:19;;;;;;;;;;;23.70;29.40;;;;;;1558292;74;1936;-68
2021/05/09 10:30:21;;;;;;;;;;;23.80;29.30;;;;;;1559452;74;1143;-68
2021/05/09 10:32:24;;;;;;;;;;;23.80;29.20;;;;;;1576645;74;1058;-69
2021/05/09 10:34:44;;;;;;;;;;;23.80;29.40;;;;;;1558018;74;807;-67
2021/05/09 10:36:46;;;;;;;;;;;23.80;29.20;;;;;;1553446;74;797;-67
2021/05/09 10:38:58;;;;;;;;;;;23.70;28.90;;;;;;1557933;74;766;-72
2021/05/09 10:41:10;;;;;;;;;;;23.80;28.90;;;;;;1553052;75;1124;-67
2021/05/09 10:43:15;;;;;;;;;;;23.80;28.80;;;;;;1552717;74;905;-69
2021/05/09 10:45:29;;;;;;;;;;;23.70;28.60;;;;;;1569255;74;901;-65
2021/05/09 10:47:34;;;;;;;;;;;23.70;28.60;;;;;;1551337;74;1930;-67
2021/05/09 10:49:36;;;;;;;;;;;23.70;28.80;;;;;;1553475;74;764;-66
2021/05/09 10:51:38;;;;;;;;;;;23.80;28.30;;;;;;1549445;74;1125;-66
2021/05/09 10:53:41;;;;;;;;;;;23.70;27.30;;;;;;1549661;74;721;-66
2021/05/09 10:55:43;;;;;;;;;;;23.60;27.40;;;;;;1545236;74;738;-67
2021/05/09 10:57:45;;;;;;;;;;;23.70;27.50;;;;;;1549960;74;726;-66
2021/05/09 10:59:55;;;;;;;;;;;23.70;26.80;;;;;;1549080;74;1178;-65
2021/05/09 11:01:58;;;;;;;;;;;23.60;26.80;;;;;;1559448;74;1071;-66
2021/05/09 11:04:07;;;;;;;;;;;23.60;26.00;;;;;;1549041;74;1738;-66
2021/05/09 11:06:09;;;;;;;;;;;23.60;26.00;;;;;;1559683;74;795;-65
2021/05/09 11:08:11;;;;;;;;;;;23.60;25.20;;;;;;1557590;74;1924;-68
2021/05/09 11:10:31;;;;;;;;;;;23.50;25.20;;;;;;1552532;73;1154;-66
2021/05/09 11:12:34;;;;;;;;;;;23.60;23.60;;;;;;1548827;74;743;-66
2021/05/09 11:14:36;;;;;;;;;;;23.50;24.70;;;;;;1549072;74;877;-66
2021/05/09 11:16:39;;;;;;;;;;;23.60;25.50;;;;;;1549308;74;828;-66
2021/05/09 11:18:41;;;;;;;;;;;23.50;24.00;;;;;;1552057;74;762;-66
2021/05/09 11:20:52;;;;;;;;;;;23.50;23.50;;;;;;1552562;74;1162;-67
2021/05/09 11:23:00;;;;;;;;;;;23.50;23.90;;;;;;1548449;74;1061;-66
2021/05/09 11:25:02;;;;;;;;;;;23.50;23.30;;;;;;1555444;74;794;-68
2021/05/09 11:27:08;;;;;;;;;;;23.40;23.50;;;;;;1557064;74;796;-66
2021/05/09 11:29:13;;;;;;;;;;;23.40;23.40;;;;;;1551765;74;1912;-66
2021/05/09 11:31:28;;;;;;;;;;;23.40;23.50;;;;;;1555616;74;1145;-63
2021/05/09 11:33:48;;;;;;;;;;;23.50;23.20;;;;;;1541968;74;895;-68
2021/05/09 11:35:50;;;;;;;;;;;23.40;23.10;;;;;;1559616;74;804;-66
2021/05/09 11:37:52;;;;;;;;;;;23.50;23.40;;;;;;1550902;74;777;-66
2021/05/09 11:39:54;;;;;;;;;;;23.40;23.40;;;;;;1556588;74;1154;-67
2021/05/09 11:41:56;;;;;;;;;;;23.50;23.70;;;;;;1530481;76;1042;-67
2021/05/09 11:44:02;;;;;;;;;;;23.50;23.90;;;;;;1549606;74;699;-66
2021/05/09 11:46:05;;;;;;;;;;;23.40;23.40;;;;;;1555502;74;788;-66
2021/05/09 11:48:08;;;;;;;;;;;23.40;23.20;;;;;;1562947;73;2104;-64
2021/05/09 11:50:11;;;;;;;;;;;23.40;23.00;;;;;;1561849;74;1178;-66
2021/05/09 11:52:19;;;;;;;;;;;23.40;22.60;;;;;;1555569;74;759;-66
2021/05/09 11:54:22;;;;;;;;;;;23.40;23.10;;;;;;1557081;74;685;-66
2021/05/09 11:56:24;;;;;;;;;;;23.40;23.10;;;;;;1553166;74;765;-66
2021/05/09 11:58:26;;;;;;;;;;;23.40;23.30;;;;;;1559316;74;758;-66
2021/05/09 12:00:28;;;;;;;;;;;23.40;23.20;;;;;;1551097;74;1198;-66
2021/05/09 12:02:34;;;;;;;;;;;23.40;23.50;;;;;;1545380;74;997;-66
2021/05/09 12:04:36;;;;;;;;;;;23.40;23.70;;;;;;1555969;74;797;-67
2021/05/09 12:06:38;;;;;;;;;;;23.50;23.50;;;;;;1561715;74;743;-66
2021/05/09 12:08:39;;;;;;;;;;;23.40;22.60;;;;;;1554465;74;1925;-66
2021/05/09 12:10:42;;;;;;;;;;;23.40;22.40;;;;;;1554702;74;1176;-67
2021/05/09 12:12:44;;;;;;;;;;;23.40;22.80;;;;;;1560836;74;682;-66